Time;durP1;ratioP1;P1;durP2;ratioP2;P2;SDS_P1;SDS_P2;PMS_P1;PMS_P2;Temp;Humidity;BMP_temperature;BMP_pressure;BME280_temperature;BME280_humidity;BME280_pressure;Samples;Min_cycle;Max_cycle;Signal;HPM_P1;HPM_P2
2021/04/05 00:00:12;;;;;;;9.73;7.50;;;8.60;91.10;;;;;;5052889;28;20413;-63
2021/04/05 00:02:38;;;;;;;12.00;7.23;;;8.40;91.30;;;;;;5054337;28;20204;-63
2021/04/05 00:05:10;;;;;;;7.43;6.70;;;8.50;91.40;;;;;;5053519;28;20472;-63
2021/04/05 00:07:36;;;;;;;9.00;6.97;;;8.50;91.70;;;;;;5053414;28;20503;-63
2021/04/05 00:10:12;;;;;;;10.70;7.47;;;8.50;91.80;;;;;;5055091;28;20401;-63
2021/04/05 00:12:37;;;;;;;9.73;6.70;;;8.40;92.00;;;;;;5054360;28;20505;-63
2021/04/05 00:15:06;;;;;;;11.00;7.00;;;8.20;92.20;;;;;;5054360;28;20409;-63
2021/04/05 00:17:33;;;;;;;8.93;7.37;;;8.10;92.60;;;;;;5054265;28;20211;-63
2021/04/05 00:19:59;;;;;;;8.77;7.47;;;8.10;92.80;;;;;;5055320;28;20500;-63
2021/04/05 00:22:24;;;;;;;9.53;7.40;;;8.00;93.10;;;;;;5053931;28;20437;-63
2021/04/05 00:24:50;;;;;;;8.27;7.20;;;7.90;93.20;;;;;;5059317;28;20167;-63
2021/04/05 00:27:15;;;;;;;7.93;6.77;;;7.80;93.40;;;;;;5068951;28;20254;-63
2021/04/05 00:29:41;;;;;;;10.17;7.77;;;7.90;93.40;;;;;;5057636;28;20243;-63
2021/04/05 00:32:07;;;;;;;11.33;7.23;;;7.80;93.50;;;;;;5068530;28;20198;-63
2021/04/05 00:34:32;;;;;;;9.00;6.47;;;7.80;93.60;;;;;;5070511;28;20228;-62
2021/04/05 00:36:58;;;;;;;8.77;6.90;;;7.90;93.60;;;;;;5062148;28;20449;-63
2021/04/05 00:39:24;;;;;;;9.40;7.13;;;7.90;93.50;;;;;;5053039;28;20178;-63
2021/04/05 00:41:50;;;;;;;8.80;6.00;;;7.70;93.70;;;;;;5053680;28;20567;-63
2021/04/05 00:44:15;;;;;;;9.30;7.13;;;7.90;93.80;;;;;;5055509;28;20259;-62
2021/04/05 00:46:41;;;;;;;9.07;6.10;;;8.00;93.50;;;;;;5053622;28;20405;-62
2021/04/05 00:49:07;;;;;;;6.80;6.10;;;8.20;93.40;;;;;;5053218;28;20195;-64
2021/04/05 00:51:33;;;;;;;10.37;7.50;;;8.30;92.70;;;;;;5053637;28;20512;-63
2021/04/05 00:53:59;;;;;;;11.47;6.50;;;8.10;92.60;;;;;;5052182;28;20432;-63
2021/04/05 00:56:28;;;;;;;12.13;6.63;;;8.10;92.70;;;;;;5052882;28;20448;-64
2021/04/05 00:58:54;;;;;;;11.17;6.80;;;8.10;92.90;;;;;;5052938;28;20800;-64
2021/04/05 01:01:27;;;;;;;6.70;5.83;;;8.10;92.80;;;;;;5053229;28;20398;-64
2021/04/05 01:03:53;;;;;;;6.70;6.00;;;8.10;92.90;;;;;;5053452;28;20429;-64
2021/04/05 01:06:34;;;;;;;6.00;5.40;;;8.20;92.90;;;;;;5052806;28;20409;-63
2021/04/05 01:09:00;;;;;;;10.30;6.40;;;8.20;92.90;;;;;;5052670;28;20444;-63
2021/04/05 01:11:28;;;;;;;7.73;5.73;;;8.10;92.80;;;;;;5054410;28;20980;-64
2021/04/05 01:13:55;;;;;;;7.27;6.23;;;8.20;92.70;;;;;;5056639;28;20898;-64
2021/04/05 01:16:27;;;;;;;9.43;6.10;;;8.20;92.40;;;;;;5057128;28;20450;-64
2021/04/05 01:18:54;;;;;;;7.17;5.30;;;8.30;92.90;;;;;;5056457;28;20459;-63
2021/04/05 01:21:19;;;;;;;7.90;5.53;;;8.30;92.70;;;;;;5056826;28;20397;-63
2021/04/05 01:23:45;;;;;;;9.40;5.43;;;8.40;92.60;;;;;;5056205;28;20397;-63
2021/04/05 01:26:11;;;;;;;7.70;5.17;;;8.40;92.30;;;;;;5056732;28;20208;-63
2021/04/05 01:28:36;;;;;;;8.27;5.33;;;8.50;92.40;;;;;;5056621;28;20194;-64
2021/04/05 01:31:03;;;;;;;7.00;5.13;;;8.60;92.20;;;;;;5056253;28;20166;-64
2021/04/05 01:33:37;;;;;;;6.60;5.20;;;8.50;92.40;;;;;;5056316;28;20533;-63
2021/04/05 01:36:08;;;;;;;7.27;6.50;;;8.50;92.30;;;;;;5056536;28;20413;-64
2021/04/05 01:38:40;;;;;;;5.87;4.50;;;8.60;92.40;;;;;;5055679;28;20478;-64
2021/04/05 01:41:14;;;;;;;8.00;4.93;;;8.50;92.30;;;;;;5056155;28;20386;-63
2021/04/05 01:43:40;;;;;;;6.93;5.37;;;8.40;92.40;;;;;;5055731;28;20401;-64
2021/04/05 01:46:08;;;;;;;8.60;6.10;;;8.50;92.90;;;;;;5056321;28;20761;-63
2021/04/05 01:48:34;;;;;;;5.80;5.00;;;8.40;92.60;;;;;;5056047;28;20426;-64
2021/04/05 01:51:03;;;;;;;9.00;6.10;;;8.40;92.80;;;;;;5056212;28;20405;-63
2021/04/05 01:53:29;;;;;;;11.07;5.93;;;8.30;92.90;;;;;;5056477;28;20413;-63
2021/04/05 01:56:00;;;;;;;9.17;6.20;;;8.30;93.00;;;;;;5055976;28;20424;-64
2021/04/05 01:58:29;;;;;;;13.63;5.80;;;8.20;92.90;;;;;;5055970;28;20425;-63
2021/04/05 02:00:55;;;;;;;10.43;5.90;;;8.20;93.20;;;;;;5055958;28;20502;-63
2021/04/05 02:03:21;;;;;;;6.93;5.43;;;8.00;93.40;;;;;;5055941;28;20405;-63
2021/04/05 02:06:01;;;;;;;7.90;5.73;;;7.90;93.70;;;;;;5056213;28;20471;-64
2021/04/05 02:08:28;;;;;;;11.33;6.00;;;7.70;93.80;;;;;;5055779;28;20489;-63
2021/04/05 02:10:57;;;;;;;7.53;5.83;;;7.80;94.10;;;;;;5056003;28;20423;-63
2021/04/05 02:13:24;;;;;;;7.07;4.90;;;7.90;94.10;;;;;;5056200;28;20408;-63
2021/04/05 02:15:51;;;;;;;7.47;5.30;;;7.90;94.00;;;;;;5055828;28;20503;-63
2021/04/05 02:18:19;;;;;;;7.30;5.80;;;7.90;94.30;;;;;;5055802;28;20433;-63
2021/04/05 02:20:45;;;;;;;9.10;5.97;;;7.90;94.30;;;;;;5055599;28;20773;-63
2021/04/05 02:23:12;;;;;;;7.40;5.63;;;7.80;93.90;;;;;;5054329;28;20416;-63
2021/04/05 02:26:06;;;;;;;9.40;6.03;;;7.90;94.00;;;;;;5037532;28;20413;-63
2021/04/05 02:28:27;;;;;;;10.97;6.20;;;7.80;93.90;;;;;;5055165;28;20522;-63
2021/04/05 02:30:55;;;;;;;10.70;5.83;;;7.70;94.20;;;;;;5055447;28;20905;-64
2021/04/05 02:33:21;;;;;;;10.13;6.13;;;7.70;94.10;;;;;;5055172;28;20406;-63
2021/04/05 02:35:47;;;;;;;7.90;6.17;;;7.80;94.20;;;;;;5055399;28;20857;-64
2021/04/05 02:38:13;;;;;;;8.37;6.70;;;7.90;94.00;;;;;;5054672;28;20542;-64
2021/04/05 02:40:40;;;;;;;9.77;5.83;;;8.00;94.00;;;;;;5055226;28;20187;-64
2021/04/05 02:43:06;;;;;;;6.83;5.90;;;8.00;93.60;;;;;;5054867;28;20401;-64
2021/04/05 02:45:32;;;;;;;6.60;5.60;;;8.20;93.70;;;;;;5055065;28;20818;-64
2021/04/05 02:47:59;;;;;;;9.10;5.43;;;8.20;93.40;;;;;;5056479;28;20193;-62
2021/04/05 02:50:31;;;;;;;8.30;6.90;;;8.00;93.40;;;;;;5073971;28;20178;-64
2021/04/05 02:53:04;;;;;;;7.37;5.90;;;8.10;93.50;;;;;;5074768;28;20433;-64
2021/04/05 02:55:30;;;;;;;7.40;6.20;;;8.20;93.50;;;;;;5074476;28;20424;-64
2021/04/05 02:57:56;;;;;;;11.57;6.87;;;8.10;93.40;;;;;;5074371;28;20487;-63
2021/04/05 03:00:23;;;;;;;6.20;5.60;;;8.10;93.50;;;;;;5075174;28;20453;-63
2021/04/05 03:02:51;;;;;;;11.60;6.73;;;8.00;93.70;;;;;;5074535;28;20770;-63
2021/04/05 03:05:20;;;;;;;8.07;5.93;;;7.90;93.70;;;;;;5075152;28;20407;-63
2021/04/05 03:10:17;;;;;;;6.37;5.70;;;7.70;94.40;;;;;;5042294;28;20978;-64
2021/04/05 03:12:44;;;;;;;6.60;5.37;;;7.60;94.30;;;;;;5054273;28;20405;-63
2021/04/05 03:15:12;;;;;;;7.40;5.47;;;7.50;94.70;;;;;;5053831;28;20389;-63
2021/04/05 03:17:39;;;;;;;6.30;5.70;;;7.60;94.90;;;;;;5053090;28;20443;-64
2021/04/05 03:20:16;;;;;;;7.70;5.93;;;7.60;95.00;;;;;;5033785;28;20505;-64
2021/04/05 03:22:43;;;;;;;8.20;5.30;;;7.60;95.10;;;;;;5034296;28;20385;-62
2021/04/05 03:25:18;;;;;;;11.40;6.40;;;7.60;95.20;;;;;;5033658;28;20813;-63
2021/04/05 03:27:45;;;;;;;10.33;6.30;;;7.50;95.50;;;;;;5034089;28;20390;-64
2021/04/05 03:30:15;;;;;;;9.63;7.00;;;7.40;95.50;;;;;;5033678;28;20506;-62
2021/04/05 03:32:42;;;;;;;9.83;6.50;;;7.10;96.00;;;;;;5034020;28;20402;-63
2021/04/05 03:35:12;;;;;;;11.00;6.87;;;6.90;96.60;;;;;;5033626;28;20493;-63
2021/04/05 03:37:41;;;;;;;9.13;6.70;;;6.90;97.00;;;;;;5033617;28;20786;-63
2021/04/05 03:40:08;;;;;;;13.13;7.03;;;6.80;97.40;;;;;;5033257;28;20425;-63
2021/04/05 03:42:41;;;;;;;9.83;6.60;;;6.90;97.40;;;;;;5033607;28;20398;-63
2021/04/05 03:45:32;;;;;;;11.13;6.20;;;6.90;97.40;;;;;;5033656;28;20514;-63
2021/04/05 03:47:58;;;;;;;10.23;6.97;;;7.10;97.40;;;;;;5033948;28;20386;-63
2021/04/05 03:50:38;;;;;;;8.87;6.80;;;7.10;97.40;;;;;;5033431;28;20960;-63
2021/04/05 03:53:24;;;;;;;10.53;7.10;;;7.00;97.50;;;;;;5033160;28;20164;-63
2021/04/05 03:55:58;;;;;;;7.67;6.73;;;6.90;97.70;;;;;;5033697;28;20440;-63
2021/04/05 03:58:28;;;;;;;12.00;6.60;;;7.00;97.80;;;;;;5033308;28;20472;-64
2021/04/05 04:00:59;;;;;;;10.63;6.53;;;7.10;97.70;;;;;;5033603;28;20886;-62
2021/04/05 04:03:35;;;;;;;11.90;7.33;;;7.20;97.80;;;;;;5033606;28;20367;-63
2021/04/05 04:06:04;;;;;;;9.63;6.90;;;7.20;97.50;;;;;;5033522;28;20804;-63
2021/04/05 04:08:44;;;;;;;8.73;6.50;;;7.30;97.30;;;;;;5032545;28;21037;-63
2021/04/05 04:11:12;;;;;;;9.90;6.30;;;7.30;97.30;;;;;;5033183;28;20396;-63
2021/04/05 04:13:44;;;;;;;10.60;7.20;;;7.40;97.10;;;;;;5032913;28;20402;-63
2021/04/05 04:16:11;;;;;;;9.13;6.63;;;7.40;96.90;;;;;;5033050;28;20395;-62
2021/04/05 04:18:37;;;;;;;10.87;7.40;;;7.30;96.80;;;;;;5033351;28;20429;-63
2021/04/05 04:21:07;;;;;;;11.50;7.50;;;7.20;96.90;;;;;;5032986;28;20410;-63
2021/04/05 04:23:33;;;;;;;10.47;6.73;;;7.10;97.10;;;;;;5032951;28;20589;-63
2021/04/05 04:25:59;;;;;;;10.40;6.50;;;7.10;97.30;;;;;;5033034;28;20401;-63
2021/04/05 04:28:24;;;;;;;8.50;6.80;;;7.10;97.30;;;;;;5032744;28;20414;-63
2021/04/05 04:31:02;;;;;;;10.00;7.13;;;7.00;97.50;;;;;;5033320;28;20179;-62
2021/04/05 04:33:29;;;;;;;9.60;6.53;;;7.10;97.70;;;;;;5033252;28;20163;-62
2021/04/05 04:35:55;;;;;;;9.00;7.40;;;7.00;97.30;;;;;;5032914;28;20398;-62
2021/04/05 04:38:22;;;;;;;7.77;5.83;;;7.00;97.50;;;;;;5032419;28;20479;-63
2021/04/05 04:40:48;;;;;;;8.70;5.90;;;7.10;97.60;;;;;;5033543;28;20164;-63
2021/04/05 04:43:14;;;;;;;7.07;6.17;;;6.90;97.60;;;;;;5032994;28;20456;-65
2021/04/05 04:45:40;;;;;;;9.67;6.70;;;7.00;97.50;;;;;;5033442;28;20505;-63
2021/04/05 04:48:06;;;;;;;9.33;6.40;;;6.90;97.60;;;;;;5036812;28;20190;-63
2021/04/05 04:50:32;;;;;;;10.40;7.20;;;6.90;97.70;;;;;;5036764;28;20557;-61
2021/04/05 04:52:58;;;;;;;10.90;7.10;;;7.00;97.60;;;;;;5036822;28;20768;-61
2021/04/05 04:55:25;;;;;;;8.80;6.80;;;7.00;97.30;;;;;;5036836;28;20406;-61
2021/04/05 04:57:58;;;;;;;9.00;6.70;;;7.10;97.30;;;;;;5039006;28;20274;-63
2021/04/05 05:00:28;;;;;;;6.73;6.10;;;7.20;97.20;;;;;;5036449;28;20402;-63
2021/04/05 05:02:56;;;;;;;8.53;6.00;;;7.40;96.90;;;;;;5036919;28;20398;-63
2021/04/05 05:05:24;;;;;;;8.70;6.00;;;7.40;96.60;;;;;;5036785;28;20409;-62
2021/04/05 05:07:50;;;;;;;9.80;5.67;;;7.50;96.10;;;;;;5036860;28;20778;-63
2021/04/05 05:10:17;;;;;;;7.47;6.40;;;7.50;95.80;;;;;;5036424;28;20444;-62
2021/04/05 05:12:44;;;;;;;10.03;6.40;;;7.30;96.20;;;;;;5036521;28;20480;-62
2021/04/05 05:15:11;;;;;;;11.37;6.93;;;7.20;96.50;;;;;;5036243;28;20936;-62
2021/04/05 05:17:42;;;;;;;7.57;6.00;;;7.20;96.20;;;;;;5036589;28;20540;-63
2021/04/05 05:20:08;;;;;;;7.70;5.70;;;7.30;95.60;;;;;;5036359;28;20501;-63
2021/04/05 05:22:39;;;;;;;10.77;6.20;;;7.50;95.30;;;;;;5036260;28;20429;-62
2021/04/05 05:25:06;;;;;;;10.50;5.90;;;7.70;95.40;;;;;;5036008;28;20394;-63
2021/04/05 05:27:40;;;;;;;7.53;5.63;;;7.60;95.10;;;;;;5036384;28;20753;-62
2021/04/05 05:30:10;;;;;;;8.33;5.63;;;7.70;94.90;;;;;;5035990;28;20398;-63
2021/04/05 05:32:39;;;;;;;8.40;6.40;;;7.80;94.80;;;;;;5036070;28;20409;-63
2021/04/05 05:35:07;;;;;;;8.70;6.23;;;7.80;94.60;;;;;;5036131;28;20925;-63
2021/04/05 05:37:33;;;;;;;8.70;6.83;;;7.90;94.70;;;;;;5035841;28;20456;-63
2021/04/05 05:39:59;;;;;;;8.73;6.10;;;7.80;95.00;;;;;;5035695;28;20430;-63
2021/04/05 05:42:56;;;;;;;8.80;6.13;;;7.90;94.40;;;;;;5036003;28;20191;-62
2021/04/05 05:45:28;;;;;;;7.73;5.73;;;8.00;94.20;;;;;;5027757;28;20179;-62
2021/04/05 05:48:12;;;;;;;10.57;5.80;;;8.10;94.10;;;;;;5035983;28;20383;-62
2021/04/05 05:50:38;;;;;;;8.23;5.13;;;8.10;93.80;;;;;;5036596;28;20401;-62
2021/04/05 05:53:39;;;;;;;6.53;5.73;;;8.20;93.90;;;;;;5035653;28;20431;-62
2021/04/05 05:56:33;;;;;;;8.30;6.37;;;8.20;93.70;;;;;;5016375;28;20471;-63
2021/04/05 05:59:30;;;;;;;8.57;5.50;;;8.40;93.50;;;;;;5034355;28;20436;-63
2021/04/05 06:02:11;;;;;;;8.40;5.93;;;8.50;93.30;;;;;;5031803;28;20496;-64
2021/04/05 06:04:48;;;;;;;6.10;5.30;;;8.60;94.10;;;;;;5029700;28;20406;-62
2021/04/05 06:07:36;;;;;;;8.57;5.60;;;8.70;93.10;;;;;;5035741;28;20418;-64
2021/04/05 06:10:32;;;;;;;7.80;6.50;;;8.80;93.10;;;;;;5034507;28;20456;-63
2021/04/05 06:13:07;;;;;;;6.17;5.57;;;9.00;92.70;;;;;;5035640;28;20430;-63
2021/04/05 06:15:43;;;;;;;7.73;5.73;;;8.80;92.70;;;;;;5034856;28;20418;-63
2021/04/05 06:18:14;;;;;;;9.20;6.40;;;9.00;93.20;;;;;;5035072;28;20456;-63
2021/04/05 06:20:54;;;;;;;7.40;5.90;;;9.10;93.10;;;;;;5034834;28;20413;-63
2021/04/05 06:23:28;;;;;;;8.73;5.30;;;9.30;92.70;;;;;;5034911;28;20496;-64
2021/04/05 06:26:18;;;;;;;7.97;5.63;;;9.50;92.50;;;;;;5035167;28;20388;-63
2021/04/05 06:28:53;;;;;;;9.43;5.50;;;9.60;91.90;;;;;;5034857;28;20550;-64
2021/04/05 06:31:52;;;;;;;6.00;5.40;;;9.70;91.80;;;;;;5034667;28;20400;-63
2021/04/05 06:34:23;;;;;;;7.20;5.33;;;9.80;91.60;;;;;;5027218;28;20994;-63
2021/04/05 06:37:07;;;;;;;6.87;4.80;;;9.90;90.80;;;;;;5026446;28;21010;-64
2021/04/05 06:39:39;;;;;;;7.33;6.07;;;9.90;90.40;;;;;;5023599;28;20464;-63
2021/04/05 06:42:11;;;;;;;7.93;5.20;;;9.90;90.80;;;;;;5014900;28;20393;-62
2021/04/05 06:45:01;;;;;;;13.20;5.80;;;9.90;90.50;;;;;;5014912;28;20752;-62
2021/04/05 06:47:44;;;;;;;7.47;4.90;;;9.80;90.20;;;;;;5015264;28;20414;-62
2021/04/05 06:50:48;;;;;;;7.10;4.80;;;10.10;89.40;;;;;;5026559;28;20793;-63
2021/04/05 06:53:53;;;;;;;5.87;4.80;;;10.30;88.40;;;;;;5034552;28;20396;-62
2021/04/05 06:56:46;;;;;;;6.50;4.70;;;10.50;88.70;;;;;;5003828;28;20483;-62
2021/04/05 06:59:25;;;;;;;7.33;5.03;;;10.50;87.80;;;;;;5034244;28;20410;-63
2021/04/05 07:02:23;;;;;;;7.63;5.67;;;10.70;88.30;;;;;;5034343;28;20755;-63
2021/04/05 07:05:18;;;;;;;9.60;5.13;;;10.80;87.00;;;;;;5034275;28;20414;-62
2021/04/05 07:08:13;;;;;;;5.13;4.43;;;10.80;85.70;;;;;;5012617;28;20908;-62
2021/04/05 07:10:51;;;;;;;8.20;5.33;;;10.70;85.80;;;;;;4984426;28;20436;-62
2021/04/05 07:13:27;;;;;;;11.77;5.83;;;10.70;85.80;;;;;;5014590;28;20436;-62
2021/04/05 07:16:44;;;;;;;6.23;4.80;;;10.70;85.90;;;;;;5014985;28;20429;-62
2021/04/05 07:19:40;;;;;;;7.10;6.00;;;10.90;86.20;;;;;;5006250;28;20454;-62
2021/04/05 07:22:36;;;;;;;6.90;4.27;;;10.80;86.30;;;;;;5014095;28;20480;-62
2021/04/05 07:25:24;;;;;;;6.20;5.50;;;10.80;86.10;;;;;;5014075;28;20411;-62
2021/04/05 07:28:05;;;;;;;6.93;4.87;;;10.90;86.20;;;;;;5014203;28;20388;-63
2021/04/05 07:30:57;;;;;;;12.83;6.13;;;11.10;86.70;;;;;;5013820;28;20791;-62
2021/04/05 07:33:41;;;;;;;8.77;5.90;;;10.90;85.20;;;;;;5014294;28;20386;-62
2021/04/05 07:36:34;;;;;;;6.10;4.77;;;10.90;84.50;;;;;;5020846;28;20443;-62
2021/04/05 07:39:27;;;;;;;10.50;5.77;;;11.00;85.50;;;;;;5033864;28;20428;-62
2021/04/05 07:41:57;;;;;;;7.33;5.77;;;10.90;85.60;;;;;;5033867;28;20389;-62
2021/04/05 07:44:35;;;;;;;9.77;5.07;;;10.80;85.20;;;;;;5033358;28;20398;-62
2021/04/05 07:47:29;;;;;;;8.23;5.63;;;10.90;84.90;;;;;;5033743;28;20390;-62
2021/04/05 07:50:15;;;;;;;10.30;5.73;;;10.80;84.90;;;;;;5033285;28;20429;-62
2021/04/05 07:53:19;;;;;;;6.40;5.30;;;11.10;85.70;;;;;;5033218;28;20496;-63
2021/04/05 07:55:47;;;;;;;7.63;5.43;;;11.10;84.30;;;;;;5010897;28;20426;-62
2021/04/05 07:58:24;;;;;;;6.97;5.27;;;11.30;84.30;;;;;;5033591;28;20489;-62
2021/04/05 08:01:16;;;;;;;8.00;5.33;;;11.40;84.00;;;;;;5033348;28;20443;-62
2021/04/05 08:04:10;;;;;;;6.23;5.27;;;11.30;83.50;;;;;;5033818;28;20466;-62
2021/04/05 08:07:04;;;;;;;6.67;5.27;;;11.50;84.30;;;;;;5014389;28;20426;-62
2021/04/05 08:09:37;;;;;;;7.03;5.07;;;11.60;84.80;;;;;;5032640;28;20450;-62
2021/04/05 08:12:22;;;;;;;8.13;5.10;;;11.80;83.90;;;;;;5033327;28;20381;-62
2021/04/05 08:14:57;;;;;;;7.80;6.10;;;12.10;83.50;;;;;;5033297;28;20444;-62
2021/04/05 08:17:35;;;;;;;9.20;5.77;;;12.30;82.10;;;;;;5033175;28;20519;-62
2021/04/05 08:20:08;;;;;;;9.57;5.93;;;12.70;82.10;;;;;;5034279;28;20425;-62
2021/04/05 08:22:55;;;;;;;7.50;5.07;;;12.50;80.90;;;;;;5034748;28;20396;-62
2021/04/05 08:25:43;;;;;;;6.87;4.83;;;12.50;81.90;;;;;;5034947;28;20414;-63
2021/04/05 08:28:29;;;;;;;8.43;5.37;;;12.50;81.40;;;;;;5034131;28;20430;-63
2021/04/05 08:31:16;;;;;;;10.07;5.20;;;12.80;81.00;;;;;;5033117;28;20390;-62
2021/04/05 08:34:22;;;;;;;6.33;4.97;;;13.00;82.20;;;;;;5033611;28;20833;-62
2021/04/05 08:36:49;;;;;;;7.97;5.10;;;13.20;79.60;;;;;;5032950;28;20579;-62
2021/04/05 08:39:42;;;;;;;7.50;5.10;;;13.20;79.50;;;;;;5033212;28;21014;-62
2021/04/05 08:42:29;;;;;;;5.40;4.57;;;13.60;80.20;;;;;;5035757;28;20395;-63
2021/04/05 08:45:29;;;;;;;9.07;4.53;;;13.60;78.00;;;;;;5032868;28;20482;-62
2021/04/05 08:48:04;;;;;;;7.67;4.30;;;13.50;76.40;;;;;;5033475;28;20390;-63
2021/04/05 08:50:33;;;;;;;7.00;3.50;;;13.40;74.70;;;;;;5033513;28;20382;-62
2021/04/05 08:53:00;;;;;;;8.93;3.90;;;13.60;74.70;;;;;;5008267;28;20436;-63
2021/04/05 08:55:31;;;;;;;6.70;3.57;;;13.60;70.10;;;;;;5023399;28;20432;-63
2021/04/05 08:58:10;;;;;;;7.13;3.67;;;13.50;69.70;;;;;;5031835;28;20445;-63
2021/04/05 09:00:40;;;;;;;6.67;3.80;;;13.50;68.00;;;;;;5032985;28;20394;-63
2021/04/05 09:03:11;;;;;;;8.37;3.90;;;13.50;67.60;;;;;;5033020;28;20379;-62
2021/04/05 09:05:42;;;;;;;7.43;3.70;;;13.70;68.00;;;;;;5032398;28;20405;-63
2021/04/05 09:08:16;;;;;;;6.93;3.80;;;13.70;68.70;;;;;;5032772;28;20953;-62
2021/04/05 09:10:51;;;;;;;5.97;3.40;;;13.80;68.30;;;;;;5032596;28;20405;-62
2021/04/05 09:13:24;;;;;;;5.97;3.60;;;13.50;68.90;;;;;;5032696;28;20407;-62
2021/04/05 09:16:10;;;;;;;6.83;3.60;;;13.50;68.90;;;;;;5032558;28;20391;-63
2021/04/05 09:19:00;;;;;;;9.50;4.33;;;13.30;69.00;;;;;;5032499;28;20489;-63
2021/04/05 09:21:47;;;;;;;8.67;4.20;;;13.10;69.80;;;;;;5032655;28;20382;-62
2021/04/05 09:24:33;;;;;;;6.57;4.00;;;13.00;69.60;;;;;;5032764;28;20385;-62
2021/04/05 09:27:36;;;;;;;7.37;4.40;;;12.70;69.40;;;;;;5032328;28;20386;-62
2021/04/05 09:30:12;;;;;;;8.93;3.97;;;12.90;69.90;;;;;;5067083;23;20538;-63
2021/04/05 09:32:46;;;;;;;6.80;4.10;;;12.70;70.50;;;;;;5054968;28;20375;-62
2021/04/05 09:35:14;;;;;;;11.13;4.90;;;12.80;71.50;;;;;;5038974;28;20424;-62
2021/04/05 09:37:55;;;;;;;6.67;4.70;;;12.70;70.30;;;;;;5056169;28;20457;-62
2021/04/05 09:41:01;;;;;;;6.13;4.43;;;12.80;70.10;;;;;;5056506;28;20439;-62
2021/04/05 09:44:16;;;;;;;15.00;6.00;;;13.30;69.40;;;;;;5056523;28;20760;-64
2021/04/05 09:46:54;;;;;;;7.07;3.83;;;13.10;69.90;;;;;;5016228;28;20913;-63
2021/04/05 09:49:52;;;;;;;8.83;4.97;;;13.10;67.70;;;;;;5055867;28;20436;-64
2021/04/05 09:52:29;;;;;;;12.47;6.87;;;13.30;68.50;;;;;;5056081;28;20379;-63
2021/04/05 09:55:00;;;;;;;6.90;4.50;;;13.30;67.70;;;;;;5055949;28;20412;-63
2021/04/05 09:57:37;;;;;;;6.57;4.17;;;13.30;67.40;;;;;;5056218;28;20463;-63
2021/04/05 10:00:12;;;;;;;7.37;3.87;;;13.30;66.70;;;;;;5055603;28;20520;-62
2021/04/05 10:02:48;;;;;;;5.50;3.63;;;13.60;65.30;;;;;;5038544;28;20819;-63
2021/04/05 10:05:15;;;;;;;6.13;3.43;;;13.60;64.10;;;;;;5059474;28;20387;-64
2021/04/05 10:07:45;;;;;;;5.57;3.43;;;13.30;61.60;;;;;;5071714;28;20414;-64
2021/04/05 10:10:13;;;;;;;6.20;3.90;;;13.10;64.60;;;;;;5062079;28;20510;-63
2021/04/05 10:12:40;;;;;;;8.33;4.70;;;13.00;63.10;;;;;;5068294;28;20416;-63
2021/04/05 10:15:10;;;;;;;4.93;3.40;;;13.20;64.40;;;;;;5052157;28;20969;-63
2021/04/05 10:17:36;;;;;;;4.93;3.53;;;13.50;63.70;;;;;;5070688;28;20426;-64
2021/04/05 10:20:05;;;;;;;9.23;5.00;;;13.70;62.60;;;;;;5061228;28;20426;-64
2021/04/05 10:22:45;;;;;;;12.33;4.50;;;13.80;63.30;;;;;;5055817;28;20536;-64
2021/04/05 10:25:12;;;;;;;7.50;4.10;;;13.60;62.60;;;;;;5056060;28;20380;-64
2021/04/05 10:27:39;;;;;;;5.77;4.00;;;13.50;61.30;;;;;;5055788;28;20754;-64
2021/04/05 10:30:08;;;;;;;11.50;4.40;;;13.20;61.50;;;;;;5054664;28;20450;-64
2021/04/05 10:32:34;;;;;;;5.23;3.67;;;13.30;62.10;;;;;;5037304;28;20520;-64
2021/04/05 10:35:01;;;;;;;7.57;3.83;;;13.50;62.00;;;;;;5055484;28;20499;-64
2021/04/05 10:37:35;;;;;;;5.13;3.30;;;13.70;60.20;;;;;;5055442;28;20851;-64
2021/04/05 10:40:02;;;;;;;9.73;3.73;;;13.90;61.90;;;;;;5055719;28;20793;-64
2021/04/05 10:42:42;;;;;;;7.27;3.97;;;14.10;59.50;;;;;;5055150;28;20406;-64
2021/04/05 10:45:24;;;;;;;5.43;4.20;;;14.20;57.60;;;;;;5054029;28;20391;-63
2021/04/05 10:48:06;;;;;;;4.70;3.40;;;13.90;57.50;;;;;;5055424;28;20391;-64
2021/04/05 10:50:36;;;;;;;6.83;4.47;;;14.00;58.40;;;;;;5055021;28;20938;-64
2021/04/05 10:53:13;;;;;;;6.77;3.83;;;14.10;57.40;;;;;;5057425;28;20400;-64
2021/04/05 10:55:45;;;;;;;4.50;3.50;;;14.20;56.50;;;;;;5054925;28;20395;-64
2021/04/05 10:58:15;;;;;;;4.90;3.80;;;14.10;55.80;;;;;;5054733;28;20455;-64
2021/04/05 11:00:42;;;;;;;7.00;4.00;;;14.40;56.60;;;;;;5054046;28;20422;-64
2021/04/05 11:03:18;;;;;;;6.37;3.90;;;14.20;56.20;;;;;;5054568;28;20482;-64
2021/04/05 11:05:49;;;;;;;6.63;3.93;;;14.10;55.50;;;;;;5054913;28;20383;-64
2021/04/05 11:08:20;;;;;;;5.07;4.10;;;13.90;56.70;;;;;;5054846;28;20398;-64
2021/04/05 11:10:47;;;;;;;6.07;3.37;;;14.20;56.10;;;;;;5054846;28;20416;-64
2021/04/05 11:13:17;;;;;;;7.70;3.67;;;14.40;55.60;;;;;;5054721;28;20882;-64
2021/04/05 11:15:45;;;;;;;5.90;4.43;;;14.60;54.80;;;;;;5054228;28;20442;-64
2021/04/05 11:18:17;;;;;;;3.50;3.07;;;14.70;54.20;;;;;;5054524;28;20543;-64
2021/04/05 11:20:44;;;;;;;5.87;3.77;;;14.90;55.40;;;;;;5054247;28;20514;-64
2021/04/05 11:23:12;;;;;;;7.50;3.57;;;14.90;53.90;;;;;;5054436;28;20407;-64
2021/04/05 11:25:57;;;;;;;5.50;3.40;;;14.80;53.80;;;;;;5054167;28;20415;-64
2021/04/05 11:28:25;;;;;;;5.77;3.90;;;14.80;53.50;;;;;;5054234;28;20424;-63
2021/04/05 11:30:59;;;;;;;7.57;4.53;;;14.60;54.30;;;;;;5053296;28;20455;-63
2021/04/05 11:33:28;;;;;;;8.07;4.13;;;14.60;55.20;;;;;;5054623;28;20482;-63
2021/04/05 11:35:54;;;;;;;15.47;6.30;;;14.40;57.40;;;;;;5054383;28;20989;-64
2021/04/05 11:38:21;;;;;;;7.60;4.93;;;14.30;59.40;;;;;;5053817;28;20489;-63
2021/04/05 11:40:49;;;;;;;10.23;5.83;;;14.00;60.10;;;;;;5054090;28;21012;-63
2021/04/05 11:43:20;;;;;;;12.27;6.17;;;14.00;61.00;;;;;;5054321;28;20403;-64
2021/04/05 11:45:54;;;;;;;8.87;4.90;;;14.20;61.70;;;;;;5054013;28;20453;-63
2021/04/05 11:48:22;;;;;;;11.27;5.90;;;14.40;62.50;;;;;;5053602;28;20448;-64
2021/04/05 11:50:49;;;;;;;10.30;6.30;;;14.50;62.60;;;;;;5054363;28;20426;-64
2021/04/05 11:53:40;;;;;;;9.73;5.47;;;14.60;62.00;;;;;;5053963;28;20414;-64
2021/04/05 11:56:15;;;;;;;13.43;7.13;;;14.50;63.80;;;;;;5054150;28;20443;-65
2021/04/05 11:59:16;;;;;;;9.60;6.77;;;14.40;63.60;;;;;;5053599;28;20388;-64
2021/04/05 12:01:54;;;;;;;11.03;7.20;;;13.80;65.30;;;;;;5033557;28;20875;-61
2021/04/05 12:04:29;;;;;;;12.43;7.07;;;13.60;66.50;;;;;;5033888;28;20797;-64
2021/04/05 12:07:11;;;;;;;12.40;7.03;;;13.60;67.20;;;;;;5033936;28;20928;-64
2021/04/05 12:09:44;;;;;;;11.50;7.90;;;13.40;67.80;;;;;;5033797;28;20421;-64
2021/04/05 12:12:34;;;;;;;10.97;7.53;;;13.40;68.00;;;;;;5033928;28;20465;-62
2021/04/05 12:15:02;;;;;;;16.00;9.27;;;13.30;67.50;;;;;;5033119;28;20388;-64
2021/04/05 12:17:29;;;;;;;13.10;8.43;;;13.20;68.60;;;;;;5033300;28;20440;-64
2021/04/05 12:19:56;;;;;;;15.80;9.60;;;13.20;68.90;;;;;;5033491;28;20470;-63
2021/04/05 12:22:30;;;;;;;15.27;8.60;;;13.20;69.70;;;;;;5033399;28;20413;-64
2021/04/05 12:24:59;;;;;;;11.43;8.10;;;13.20;70.50;;;;;;5033396;28;20492;-63
2021/04/05 12:27:35;;;;;;;12.40;8.00;;;13.20;70.60;;;;;;5033221;28;20418;-64
2021/04/05 12:30:04;;;;;;;17.53;9.00;;;13.30;71.20;;;;;;5043094;28;20464;-63
2021/04/05 12:32:31;;;;;;;17.03;8.80;;;13.10;71.80;;;;;;5053380;28;20409;-61
2021/04/05 12:35:00;;;;;;;16.80;9.20;;;13.20;72.60;;;;;;5053110;28;20802;-65
2021/04/05 12:37:27;;;;;;;12.60;10.50;;;13.10;73.50;;;;;;5053386;28;20437;-64
2021/04/05 12:39:56;;;;;;;18.07;9.37;;;12.90;75.40;;;;;;5053380;28;20421;-65
2021/04/05 12:42:28;;;;;;;18.07;10.50;;;12.90;75.90;;;;;;5053414;28;20916;-65
2021/04/05 12:44:57;;;;;;;17.93;10.80;;;13.00;76.60;;;;;;5052685;28;20377;-64
2021/04/05 12:47:34;;;;;;;15.97;9.53;;;13.20;76.80;;;;;;5053357;28;20793;-64
2021/04/05 12:50:06;;;;;;;14.77;9.77;;;13.20;75.90;;;;;;5053126;28;20424;-65
2021/04/05 12:52:37;;;;;;;15.23;9.87;;;13.10;76.30;;;;;;5053018;28;20406;-65
2021/04/05 12:55:12;;;;;;;21.53;11.40;;;13.20;77.10;;;;;;5053666;28;20378;-64
2021/04/05 12:57:38;;;;;;;21.70;12.40;;;12.90;76.50;;;;;;5053151;28;20434;-65
2021/04/05 13:00:21;;;;;;;15.20;11.07;;;12.70;78.10;;;;;;5052819;28;20438;-64
2021/04/05 13:03:01;;;;;;;18.37;10.30;;;12.50;79.20;;;;;;5055744;28;20442;-64
2021/04/05 13:05:44;;;;;;;18.50;12.03;;;12.50;80.00;;;;;;5035484;28;20421;-64
2021/04/05 13:08:18;;;;;;;18.97;10.30;;;12.50;79.60;;;;;;5056320;28;20403;-65
2021/04/05 13:11:21;;;;;;;17.87;12.50;;;12.70;79.90;;;;;;5057321;28;20416;-65
2021/04/05 13:13:57;;;;;;;20.47;11.87;;;12.70;80.00;;;;;;5059854;28;20401;-65
2021/04/05 13:16:56;;;;;;;15.13;10.27;;;12.80;79.40;;;;;;5071264;28;20433;-64
2021/04/05 13:19:27;;;;;;;18.37;11.40;;;12.80;79.00;;;;;;5071391;28;20429;-63
2021/04/05 13:21:54;;;;;;;19.60;11.40;;;12.50;79.20;;;;;;5042396;28;20513;-64
2021/04/05 13:24:27;;;;;;;16.20;11.47;;;12.40;80.30;;;;;;5070172;28;20401;-64
2021/04/05 13:26:55;;;;;;;17.97;10.73;;;12.40;80.00;;;;;;5064055;28;20397;-64